createdAt,value
2019-02-19T00:02:55.339Z,0.90
2019-02-19T00:06:00.781Z,1.10
2019-02-19T00:09:07.866Z,1.30
2019-02-19T00:12:14.316Z,1.00
2019-02-19T00:15:19.683Z,1.07
2019-02-19T00:18:25.046Z,0.90
2019-02-19T00:21:30.743Z,0.83
2019-02-19T00:24:36.429Z,1.10
2019-02-19T00:27:42.336Z,1.07
2019-02-19T00:30:48.048Z,1.10
2019-02-19T00:33:53.879Z,0.90
2019-02-19T00:36:59.280Z,1.10
2019-02-19T00:40:04.762Z,1.10
2019-02-19T00:43:10.600Z,1.17
2019-02-19T00:46:16.485Z,1.20
2019-02-19T00:49:21.922Z,1.00
2019-02-19T00:52:27.333Z,0.90
2019-02-19T00:55:33.260Z,1.00
2019-02-19T00:58:41.811Z,1.00
2019-02-19T01:01:47.199Z,1.00
2019-02-19T01:04:52.598Z,1.00
2019-02-19T01:07:57.961Z,1.10
2019-02-19T01:11:03.385Z,1.10
2019-02-19T01:14:08.846Z,0.90
2019-02-19T01:17:15.894Z,0.87
2019-02-19T01:20:21.368Z,0.90
2019-02-19T01:23:27.089Z,1.10
2019-02-19T01:26:32.878Z,0.97
2019-02-19T01:29:38.248Z,1.10
2019-02-19T01:32:46.581Z,0.90
2019-02-19T01:35:52.302Z,0.97
2019-02-19T01:38:57.776Z,1.20
2019-02-19T01:42:03.906Z,1.43
2019-02-19T01:45:10.683Z,1.17
2019-02-19T01:48:16.088Z,1.10
2019-02-19T01:51:21.504Z,1.07
2019-02-19T01:54:26.899Z,1.00
2019-02-19T01:57:32.283Z,1.00
2019-02-19T02:00:37.669Z,1.03
2019-02-19T02:03:43.047Z,1.17
2019-02-19T02:06:48.403Z,1.00
2019-02-19T02:09:54.215Z,1.10
2019-02-19T02:13:00.808Z,0.93
2019-02-19T02:16:06.615Z,0.93
2019-02-19T02:19:12.027Z,0.97
2019-02-19T02:22:19.783Z,1.07
2019-02-19T02:25:26.301Z,0.90
2019-02-19T02:28:31.693Z,1.00
2019-02-19T02:31:37.456Z,0.97
2019-02-19T02:34:43.210Z,1.00
2019-02-19T02:37:50.591Z,0.90
2019-02-19T02:40:56.131Z,1.00
2019-02-19T02:44:03.045Z,0.80
2019-02-19T02:47:08.392Z,0.97
2019-02-19T02:50:14.148Z,0.90
2019-02-19T02:53:19.945Z,0.80
2019-02-19T02:56:26.827Z,0.90
2019-02-19T02:59:32.279Z,0.80
2019-02-19T03:02:39.818Z,0.93
2019-02-19T03:06:16.950Z,1.00
2019-02-19T03:09:41.443Z,0.97
2019-02-19T03:12:46.874Z,0.80
2019-02-19T03:16:01.890Z,1.00
2019-02-19T03:18:59.751Z,0.90
2019-02-19T03:22:06.301Z,1.00
2019-02-19T03:25:13.555Z,0.93
2019-02-19T03:28:18.963Z,0.87
2019-02-19T03:31:24.513Z,0.83
2019-02-19T03:34:30.179Z,1.03
2019-02-19T03:37:37.832Z,0.90
2019-02-19T03:40:46.750Z,1.17
2019-02-19T03:43:53.973Z,1.20
2019-02-19T03:46:59.365Z,1.03
2019-02-19T03:50:05.325Z,1.00
2019-02-19T03:53:10.706Z,1.00
2019-02-19T03:56:16.108Z,1.10
2019-02-19T03:59:22.637Z,1.07
2019-02-19T04:02:28.020Z,1.20
2019-02-19T04:05:34.758Z,1.00
2019-02-19T04:08:40.140Z,0.90
2019-02-19T04:11:47.559Z,0.87
2019-02-19T04:14:53.323Z,1.30
2019-02-19T04:17:59.048Z,1.07
2019-02-19T04:21:04.447Z,1.00
2019-02-19T04:24:11.083Z,0.97
2019-02-19T04:27:16.476Z,1.20
2019-02-19T04:30:22.157Z,1.10
2019-02-19T04:33:27.976Z,1.00
2019-02-19T04:36:33.397Z,0.83
2019-02-19T04:39:40.129Z,1.00
2019-02-19T04:42:45.958Z,0.90
2019-02-19T04:45:51.649Z,1.00
2019-02-19T04:48:58.265Z,0.93
2019-02-19T04:52:04.054Z,1.00
2019-02-19T04:55:10.276Z,0.90
2019-02-19T04:58:17.122Z,1.10
2019-02-19T05:01:22.529Z,1.00
2019-02-19T05:04:29.979Z,1.10
2019-02-19T05:07:37.851Z,1.00
2019-02-19T05:10:43.269Z,1.10
2019-02-19T05:13:52.157Z,0.90
2019-02-19T05:16:57.789Z,0.90
2019-02-19T05:20:03.187Z,0.90
2019-02-19T05:23:08.593Z,1.20
2019-02-19T05:26:13.987Z,1.10
2019-02-19T05:29:19.408Z,1.07
2019-02-19T05:32:24.898Z,1.10
2019-02-19T05:35:31.850Z,1.00
2019-02-19T05:38:37.255Z,0.80
2019-02-19T05:41:43.347Z,1.00
2019-02-19T05:44:48.735Z,1.30
2019-02-19T05:47:54.224Z,1.40
2019-02-19T05:50:59.630Z,1.70
2019-02-19T05:54:05.754Z,1.50
2019-02-19T05:57:11.146Z,1.43
2019-02-19T06:00:16.902Z,1.20
2019-02-19T06:03:22.269Z,1.30
2019-02-19T06:06:28.795Z,1.50
2019-02-19T06:09:34.602Z,1.23
2019-02-19T06:12:39.998Z,1.80
2019-02-19T06:15:45.521Z,1.30
2019-02-19T06:18:50.935Z,1.30
2019-02-19T06:21:56.319Z,1.10
2019-02-19T06:25:02.077Z,1.13
2019-02-19T06:28:07.469Z,1.10
2019-02-19T06:31:12.881Z,1.40
2019-02-19T06:34:18.409Z,1.30
2019-02-19T06:37:24.153Z,1.20
2019-02-19T06:40:30.682Z,1.23
2019-02-19T06:43:36.063Z,1.10
2019-02-19T06:46:41.451Z,1.30
2019-02-19T06:49:47.210Z,1.07
2019-02-19T06:52:52.992Z,1.10
2019-02-19T06:55:58.839Z,1.40
2019-02-19T06:59:04.256Z,1.10
2019-02-19T07:02:32.800Z,0.97
2019-02-19T07:05:38.174Z,1.23
2019-02-19T07:08:43.942Z,1.20
2019-02-19T07:11:49.376Z,1.20
2019-02-19T07:14:55.182Z,1.13
2019-02-19T07:18:01.369Z,0.90
2019-02-19T07:21:06.786Z,1.00
2019-02-19T07:24:12.190Z,1.20
2019-02-19T07:27:18.256Z,1.10
2019-02-19T07:30:25.365Z,1.00
2019-02-19T07:33:32.254Z,1.07
2019-02-19T07:36:39.546Z,0.90
2019-02-19T07:39:48.997Z,1.10
2019-02-19T07:42:54.949Z,1.10
2019-02-19T07:46:00.342Z,1.00
2019-02-19T07:49:06.068Z,1.30
2019-02-19T07:52:13.262Z,1.17
2019-02-19T07:55:19.002Z,1.07
2019-02-19T07:58:25.782Z,0.90
2019-02-19T08:01:32.637Z,0.90
2019-02-19T08:04:38.855Z,0.90
2019-02-19T08:07:46.500Z,1.07
2019-02-19T08:10:52.045Z,0.93
2019-02-19T08:14:02.357Z,1.10
2019-02-19T08:17:07.771Z,0.90
2019-02-19T08:20:15.857Z,0.97
2019-02-19T08:23:20.692Z,1.00
2019-02-19T08:26:26.425Z,1.00
2019-02-19T08:29:32.171Z,1.00
2019-02-19T08:32:37.898Z,0.97
2019-02-19T08:35:43.589Z,0.90
2019-02-19T08:38:49.423Z,0.97
2019-02-19T08:41:57.818Z,1.00
2019-02-19T08:45:06.257Z,0.90
2019-02-19T08:48:12.515Z,1.13
2019-02-19T08:51:19.344Z,0.97
2019-02-19T08:54:26.295Z,0.87
2019-02-19T08:57:34.604Z,1.00
2019-02-19T09:00:41.523Z,1.30
2019-02-19T09:04:07.299Z,0.90
2019-02-19T09:07:12.737Z,0.93
2019-02-19T09:10:22.877Z,1.10
2019-02-19T09:13:30.812Z,0.90
2019-02-19T09:16:36.282Z,0.90
2019-02-19T09:19:43.658Z,1.00
2019-02-19T09:22:52.072Z,1.00
2019-02-19T09:26:00.371Z,1.10
2019-02-19T09:29:06.223Z,1.40
2019-02-19T09:32:11.644Z,1.10
2019-02-19T09:35:19.353Z,1.27
2019-02-19T09:38:24.898Z,1.30
2019-02-19T09:41:30.380Z,1.10
2019-02-19T09:44:36.653Z,1.20
2019-02-19T09:47:42.446Z,1.20
2019-02-19T09:50:48.243Z,1.00
2019-02-19T09:53:55.129Z,0.93
2019-02-19T09:57:02.091Z,1.13
2019-02-19T10:00:11.190Z,1.00
2019-02-19T10:03:17.234Z,1.20
2019-02-19T10:06:22.638Z,1.07
2019-02-19T10:09:28.676Z,1.10
2019-02-19T10:12:34.096Z,0.97
2019-02-19T10:15:39.848Z,1.00
2019-02-19T10:18:45.662Z,0.97
2019-02-19T10:21:52.381Z,1.00
2019-02-19T10:25:00.471Z,1.23
2019-02-19T10:28:06.322Z,1.00
2019-02-19T10:31:11.745Z,1.10
2019-02-19T10:34:17.220Z,1.00
2019-02-19T10:37:22.670Z,1.00
2019-02-19T10:40:28.817Z,0.93
2019-02-19T10:43:34.597Z,1.20
2019-02-19T10:46:42.199Z,1.10
2019-02-19T10:49:47.597Z,1.17
2019-02-19T10:52:53.004Z,1.00
2019-02-19T10:55:59.512Z,1.00
2019-02-19T10:59:05.970Z,1.00
2019-02-19T11:02:11.372Z,0.97
2019-02-19T11:05:16.823Z,1.03
2019-02-19T11:08:22.253Z,1.00
2019-02-19T11:11:27.658Z,1.10
2019-02-19T11:14:33.073Z,1.07
2019-02-19T11:17:40.402Z,1.00
2019-02-19T11:20:45.801Z,1.30
2019-02-19T11:23:52.292Z,1.00
2019-02-19T11:26:57.712Z,1.00
2019-02-19T11:30:03.099Z,1.03
2019-02-19T11:33:08.506Z,1.00
2019-02-19T11:36:15.720Z,1.23
2019-02-19T11:39:22.635Z,1.13
2019-02-19T11:42:28.161Z,1.20
2019-02-19T11:45:33.551Z,1.10
2019-02-19T11:48:40.265Z,1.40
2019-02-19T11:51:46.384Z,1.10
2019-02-19T11:54:51.811Z,1.10
2019-02-19T11:57:57.548Z,1.07
2019-02-19T12:01:03.331Z,1.10
2019-02-19T12:04:09.142Z,1.20
2019-02-19T12:07:14.515Z,1.30
2019-02-19T12:10:21.560Z,1.40
2019-02-19T12:13:28.913Z,1.40
2019-02-19T12:16:34.346Z,1.40
2019-02-19T12:19:40.349Z,1.33
2019-02-19T12:22:46.715Z,1.00
2019-02-19T12:25:52.122Z,1.30
2019-02-19T12:28:59.125Z,1.30
2019-02-19T12:32:04.597Z,1.37
2019-02-19T12:35:11.162Z,1.20
2019-02-19T12:38:16.591Z,1.20
2019-02-19T12:41:23.993Z,1.60
2019-02-19T12:44:29.386Z,1.20
2019-02-19T12:47:34.847Z,1.20
2019-02-19T12:50:40.288Z,1.17
2019-02-19T12:53:46.093Z,1.30
2019-02-19T12:56:51.461Z,1.40
2019-02-19T12:59:56.940Z,1.37
2019-02-19T13:03:02.922Z,1.27
2019-02-19T13:06:09.450Z,1.27
2019-02-19T13:09:17.168Z,1.40
2019-02-19T13:12:22.885Z,1.10
2019-02-19T13:15:28.436Z,1.20
2019-02-19T13:18:39.698Z,1.10
2019-02-19T13:21:45.275Z,1.20
2019-02-19T13:24:50.671Z,1.53
2019-02-19T13:27:57.193Z,1.30
2019-02-19T13:31:02.576Z,1.17
2019-02-19T13:34:10.745Z,1.20
2019-02-19T13:37:17.455Z,1.30
2019-02-19T13:40:23.910Z,1.30
2019-02-19T13:43:29.790Z,1.13
2019-02-19T13:46:35.150Z,1.40
2019-02-19T13:49:42.595Z,1.43
2019-02-19T13:52:53.257Z,1.40
2019-02-19T13:56:00.154Z,1.30
2019-02-19T13:59:06.757Z,1.40
2019-02-19T14:02:12.147Z,1.60
2019-02-19T14:05:18.080Z,1.30
2019-02-19T14:08:23.447Z,1.50
2019-02-19T14:11:28.854Z,1.50
2019-02-19T14:14:45.459Z,1.23
2019-02-19T14:17:50.866Z,1.10
2019-02-19T14:21:06.624Z,1.50
2019-02-19T14:24:30.310Z,1.50
2019-02-19T14:28:06.448Z,1.40
2019-02-19T14:31:29.263Z,1.40
2019-02-19T14:34:58.701Z,1.40
2019-02-19T14:38:21.677Z,1.30
2019-02-19T14:42:01.429Z,1.40
2019-02-19T14:45:15.614Z,1.40
2019-02-19T14:48:40.007Z,1.20
2019-02-19T14:52:19.323Z,1.20
2019-02-19T14:55:46.733Z,1.50
2019-02-19T14:59:08.705Z,1.50
2019-02-19T15:02:34.984Z,1.37
2019-02-19T15:05:58.013Z,1.90
2019-02-19T15:09:18.914Z,1.50
2019-02-19T15:13:02.199Z,1.50
2019-02-19T15:16:30.841Z,1.33
2019-02-19T15:19:54.165Z,1.60
2019-02-19T15:23:13.097Z,1.50
2019-02-19T15:26:36.611Z,1.47
2019-02-19T15:30:00.296Z,1.43
2019-02-19T15:33:43.084Z,1.40
2019-02-19T15:37:06.814Z,1.43
2019-02-19T15:40:31.106Z,1.53
2019-02-19T15:43:42.280Z,1.30
2019-02-19T15:47:05.785Z,1.40
2019-02-19T15:50:38.956Z,1.47
2019-02-19T15:54:24.006Z,1.47
2019-02-19T15:57:47.411Z,1.30
2019-02-19T16:01:10.606Z,1.30
2019-02-19T16:04:42.160Z,1.40
2019-02-19T16:08:06.503Z,1.90
2019-02-19T16:11:46.161Z,1.23
2019-02-19T16:14:58.387Z,1.33
2019-02-19T16:18:24.046Z,1.43
2019-02-19T16:21:49.386Z,1.30
2019-02-19T16:25:05.549Z,1.30
2019-02-19T16:28:28.731Z,1.20
2019-02-19T16:31:52.791Z,1.40
2019-02-19T16:35:23.176Z,1.40
2019-02-19T16:38:47.033Z,1.07
2019-02-19T16:42:00.363Z,1.50
2019-02-19T16:45:25.861Z,1.20
2019-02-19T16:48:55.929Z,1.10
2019-02-19T16:52:16.566Z,1.47
2019-02-19T16:55:50.115Z,1.70
2019-02-19T16:59:23.620Z,1.73
2019-02-19T17:02:55.237Z,1.40
2019-02-19T17:06:14.034Z,1.60
2019-02-19T17:09:33.091Z,1.60
2019-02-19T17:12:56.330Z,1.77
2019-02-19T17:16:26.708Z,2.20
2019-02-19T17:19:54.780Z,2.10
2019-02-19T17:23:21.818Z,2.07
2019-02-19T17:26:46.113Z,1.70
2019-02-19T17:30:09.634Z,2.00
2019-02-19T17:33:40.850Z,1.47
2019-02-19T17:36:57.126Z,1.60
2019-02-19T17:40:20.130Z,1.40
2019-02-19T17:43:47.547Z,1.70
2019-02-19T17:47:04.892Z,1.40
2019-02-19T17:50:38.203Z,1.57
2019-02-19T17:53:53.115Z,1.60
2019-02-19T17:57:24.894Z,1.50
2019-02-19T18:00:37.253Z,1.90
2019-02-19T18:04:07.501Z,1.40
2019-02-19T18:07:31.783Z,1.47
2019-02-19T18:11:00.039Z,1.80
2019-02-19T18:14:37.420Z,1.70
2019-02-19T18:18:01.194Z,1.60
2019-02-19T18:21:06.592Z,1.70
2019-02-19T18:24:14.474Z,1.60
2019-02-19T18:27:20.920Z,1.30
2019-02-19T18:30:26.439Z,1.50
2019-02-19T18:33:31.878Z,1.50
2019-02-19T18:36:38.423Z,1.50
2019-02-19T18:39:43.829Z,1.90
2019-02-19T18:42:49.676Z,1.60
2019-02-19T18:45:57.686Z,1.70
2019-02-19T18:49:03.855Z,1.70
2019-02-19T18:52:10.078Z,1.60
2019-02-19T18:55:15.871Z,1.20
2019-02-19T18:58:21.704Z,1.60
2019-02-19T19:01:29.199Z,1.50
2019-02-19T19:04:35.307Z,1.60
2019-02-19T19:07:40.975Z,1.80
2019-02-19T19:10:47.518Z,1.50
2019-02-19T19:13:52.920Z,1.33
2019-02-19T19:17:00.718Z,1.30
2019-02-19T19:20:07.767Z,1.73
2019-02-19T19:23:14.605Z,1.50
2019-02-19T19:26:20.023Z,2.10
2019-02-19T19:29:25.524Z,1.60
2019-02-19T19:32:31.261Z,1.87
2019-02-19T19:35:38.222Z,1.80
2019-02-19T19:38:43.920Z,1.70
2019-02-19T19:41:49.365Z,1.90
2019-02-19T19:44:55.127Z,1.80
2019-02-19T19:48:01.258Z,1.77
2019-02-19T19:51:16.922Z,1.63
2019-02-19T19:54:15.874Z,1.67
2019-02-19T19:57:23.276Z,1.70
2019-02-19T20:00:28.788Z,1.53
2019-02-19T20:03:36.095Z,1.57
2019-02-19T20:06:42.947Z,1.60
2019-02-19T20:09:48.384Z,1.60
2019-02-19T20:12:56.053Z,1.80
2019-02-19T20:16:01.489Z,1.53
2019-02-19T20:19:07.733Z,1.57
2019-02-19T20:22:13.155Z,1.40
2019-02-19T20:25:18.913Z,1.60
2019-02-19T20:28:27.017Z,1.50
2019-02-19T20:31:34.306Z,1.40
2019-02-19T20:34:41.332Z,1.50
2019-02-19T20:37:53.752Z,1.40
2019-02-19T20:40:55.052Z,1.60
2019-02-19T20:44:00.767Z,1.60
2019-02-19T20:47:06.176Z,1.47
2019-02-19T20:50:12.047Z,1.73
2019-02-19T20:53:17.872Z,1.77
2019-02-19T20:56:23.263Z,1.50
2019-02-19T20:59:29.131Z,1.60
2019-02-19T21:02:37.024Z,1.47
2019-02-19T21:05:43.119Z,1.53
2019-02-19T21:08:48.515Z,1.70
2019-02-19T21:11:57.291Z,1.60
2019-02-19T21:15:10.124Z,1.80
2019-02-19T21:18:18.445Z,1.40
2019-02-19T21:21:23.844Z,1.73
2019-02-19T21:24:30.515Z,1.57
2019-02-19T21:27:35.956Z,1.27
2019-02-19T21:30:41.383Z,1.60
2019-02-19T21:33:46.899Z,1.50
2019-02-19T21:36:52.297Z,1.40
2019-02-19T21:39:58.129Z,1.30
2019-02-19T21:43:04.802Z,1.50
2019-02-19T21:46:10.201Z,1.50
2019-02-19T21:49:16.357Z,1.40
2019-02-19T21:52:21.777Z,1.47
2019-02-19T21:55:27.672Z,1.40
2019-02-19T21:58:34.838Z,1.27
2019-02-19T22:01:40.282Z,1.33
2019-02-19T22:04:45.753Z,1.50
2019-02-19T22:07:51.519Z,1.30
2019-02-19T22:10:56.956Z,1.60
2019-02-19T22:14:02.359Z,1.37
2019-02-19T22:17:07.754Z,1.30
2019-02-19T22:20:31.118Z,1.40
2019-02-19T22:23:36.494Z,1.43
2019-02-19T22:26:41.874Z,1.50
2019-02-19T22:29:47.297Z,1.47
2019-02-19T22:32:53.544Z,1.57
2019-02-19T22:35:58.932Z,1.50
2019-02-19T22:39:06.514Z,1.20
2019-02-19T22:42:11.918Z,1.30
2019-02-19T22:45:17.590Z,1.37
2019-02-19T22:48:22.966Z,1.50
2019-02-19T22:51:28.417Z,1.30
2019-02-19T22:54:57.806Z,1.27
2019-02-19T22:58:03.646Z,1.57
2019-02-19T23:01:24.672Z,1.20
2019-02-19T23:04:30.303Z,1.40
2019-02-19T23:07:36.015Z,1.13
2019-02-19T23:10:41.829Z,1.20
2019-02-19T23:13:47.203Z,1.30
2019-02-19T23:16:53.712Z,1.33
2019-02-19T23:19:59.515Z,1.40
2019-02-19T23:23:04.942Z,1.40
2019-02-19T23:26:12.445Z,1.10
2019-02-19T23:29:17.848Z,1.30
2019-02-19T23:32:23.254Z,1.30
2019-02-19T23:35:36.994Z,1.30
2019-02-19T23:38:43.413Z,1.20
2019-02-19T23:41:48.813Z,1.23
2019-02-19T23:44:54.307Z,1.20
2019-02-19T23:47:59.863Z,1.30
2019-02-19T23:51:05.286Z,1.10
2019-02-19T23:54:10.948Z,1.20
2019-02-19T23:57:16.339Z,1.00
